createdAt,value
2018-04-02T00:01:12.347Z,101126.95
2018-04-02T00:03:43.424Z,101129.78
2018-04-02T00:06:11.928Z,101127.80
2018-04-02T00:08:40.185Z,101123.50
2018-04-02T00:11:08.806Z,101134.70
2018-04-02T00:13:37.088Z,101126.97
2018-04-02T00:16:05.409Z,101128.43
2018-04-02T00:18:34.155Z,101131.45
2018-04-02T00:21:02.432Z,101125.98
2018-04-02T00:23:30.729Z,101123.66
2018-04-02T00:25:59.720Z,101124.36
2018-04-02T00:28:29.035Z,101123.48
2018-04-02T00:30:57.396Z,101124.55
2018-04-02T00:33:26.644Z,101122.52
2018-04-02T00:35:55.148Z,101124.40
2018-04-02T00:38:24.229Z,101115.88
2018-04-02T00:40:52.651Z,101112.22
2018-04-02T00:43:21.938Z,101115.52
2018-04-02T00:45:50.385Z,101118.84
2018-04-02T00:48:18.816Z,101116.50
2018-04-02T00:50:48.084Z,101109.64
2018-04-02T00:53:18.288Z,101106.39
2018-04-02T00:55:46.730Z,101110.73
2018-04-02T00:58:16.209Z,101111.27
2018-04-02T01:00:44.649Z,101108.47
2018-04-02T01:03:13.127Z,101109.62
2018-04-02T01:05:41.663Z,101103.77
2018-04-02T01:08:10.857Z,101094.98
2018-04-02T01:10:39.234Z,101098.20
2018-04-02T01:13:09.095Z,101088.27
2018-04-02T01:15:37.375Z,101082.95
2018-04-02T01:18:06.264Z,101082.50
2018-04-02T01:20:34.721Z,101083.63
2018-04-02T01:23:04.158Z,101076.68
2018-04-02T01:25:32.672Z,101069.14
2018-04-02T01:28:00.985Z,101069.55
2018-04-02T01:30:30.116Z,101063.56
2018-04-02T01:32:58.437Z,101055.80
2018-04-02T01:35:26.772Z,101062.80
2018-04-02T01:37:55.198Z,101056.05
2018-04-02T01:40:23.565Z,101049.64
2018-04-02T01:42:51.869Z,101058.55
2018-04-02T01:45:20.877Z,101052.16
2018-04-02T01:47:49.334Z,101058.32
2018-04-02T01:50:17.668Z,101058.69
2018-04-02T01:52:46.177Z,101056.70
2018-04-02T01:55:14.496Z,101051.58
2018-04-02T01:57:42.841Z,101052.98
2018-04-02T02:00:11.361Z,101046.41
2018-04-02T02:02:39.709Z,101044.02
2018-04-02T02:05:08.907Z,101040.50
2018-04-02T02:07:37.196Z,101039.77
2018-04-02T02:10:06.578Z,101041.05
2018-04-02T02:12:34.840Z,101032.42
2018-04-02T02:15:03.388Z,101037.27
2018-04-02T02:17:32.179Z,101034.36
2018-04-02T02:20:00.469Z,101032.20
2018-04-02T02:22:29.136Z,101021.94
2018-04-02T02:24:57.610Z,101023.41
2018-04-02T02:27:26.594Z,101019.05
2018-04-02T02:29:55.033Z,101017.23
2018-04-02T02:32:23.305Z,101024.16
2018-04-02T02:34:51.856Z,101010.36
2018-04-02T02:37:20.192Z,101011.48
2018-04-02T02:39:49.193Z,101009.92
2018-04-02T02:42:18.561Z,101003.98
2018-04-02T02:44:47.101Z,101006.64
2018-04-02T02:47:16.116Z,101005.63
2018-04-02T02:49:44.753Z,101003.42
2018-04-02T02:52:13.890Z,100993.76
2018-04-02T02:54:42.580Z,101001.07
2018-04-02T02:57:10.887Z,100995.09
2018-04-02T02:59:39.134Z,100992.36
2018-04-02T03:02:07.789Z,100991.06
2018-04-02T03:04:36.080Z,100995.94
2018-04-02T03:07:04.521Z,101002.91
2018-04-02T03:09:33.565Z,100998.77
2018-04-02T03:12:01.994Z,101007.77
2018-04-02T03:14:30.609Z,101003.39
2018-04-02T03:16:59.135Z,100997.94
2018-04-02T03:19:27.711Z,100994.95
2018-04-02T03:21:56.054Z,100998.05
2018-04-02T03:24:25.147Z,101000.25
2018-04-02T03:26:53.828Z,100992.33
2018-04-02T03:29:22.848Z,100988.70
2018-04-02T03:31:51.236Z,100976.73
2018-04-02T03:34:19.590Z,100977.61
2018-04-02T03:36:47.867Z,100974.45
2018-04-02T03:39:16.168Z,100967.90
2018-04-02T03:41:44.480Z,100962.63
2018-04-02T03:44:12.697Z,100960.28
2018-04-02T03:46:41.025Z,100956.31
2018-04-02T03:49:09.448Z,100956.81
2018-04-02T03:51:37.952Z,100948.38
2018-04-02T03:54:06.384Z,100949.08
2018-04-02T03:56:36.320Z,100948.31
2018-04-02T03:59:05.337Z,100950.59
2018-04-02T04:01:33.728Z,100949.13
2018-04-02T04:04:01.971Z,100943.33
2018-04-02T04:06:31.006Z,100939.00
2018-04-02T04:08:59.416Z,100943.94
2018-04-02T04:11:27.680Z,100946.28
2018-04-02T04:13:55.964Z,100934.94
2018-04-02T04:16:24.276Z,100928.45
2018-04-02T04:18:53.312Z,100931.45
2018-04-02T04:21:21.949Z,100923.37
2018-04-02T04:23:51.172Z,100917.41
2018-04-02T04:26:20.029Z,100921.37
2018-04-02T04:28:49.200Z,100908.88
2018-04-02T04:31:17.497Z,100914.47
2018-04-02T04:33:45.772Z,100912.23
2018-04-02T04:36:14.052Z,100902.94
2018-04-02T04:38:42.552Z,100907.59
2018-04-02T04:41:11.653Z,100900.30
2018-04-02T04:43:40.658Z,100900.34
2018-04-02T04:46:09.424Z,100903.80
2018-04-02T04:48:38.617Z,100894.64
2018-04-02T04:51:07.743Z,100898.45
2018-04-02T04:53:36.180Z,100894.29
2018-04-02T04:56:04.476Z,100895.09
2018-04-02T04:58:32.806Z,100889.71
2018-04-02T05:01:01.354Z,100890.00
2018-04-02T05:03:29.647Z,100890.20
2018-04-02T05:05:58.873Z,100892.80
2018-04-02T05:08:27.291Z,100891.47
2018-04-02T05:10:56.577Z,100879.53
2018-04-02T05:13:25.260Z,100883.94
2018-04-02T05:15:53.712Z,100882.95
2018-04-02T05:18:22.197Z,100885.27
2018-04-02T05:20:50.772Z,100883.91
2018-04-02T05:23:19.448Z,100879.14
2018-04-02T05:25:48.073Z,100878.02
2018-04-02T05:28:16.561Z,100875.59
2018-04-02T05:30:45.124Z,100877.06
2018-04-02T05:33:14.040Z,100871.16
2018-04-02T05:35:42.765Z,100875.02
2018-04-02T05:38:11.687Z,100874.14
2018-04-02T05:40:39.980Z,100867.41
2018-04-02T05:43:08.636Z,100858.74
2018-04-02T05:45:36.900Z,100857.87
2018-04-02T05:48:05.152Z,100850.84
2018-04-02T05:50:34.185Z,100853.82
2018-04-02T05:53:02.432Z,100845.88
2018-04-02T05:55:30.849Z,100848.75
2018-04-02T05:57:59.388Z,100848.98
2018-04-02T06:00:28.443Z,100847.98
2018-04-02T06:02:56.813Z,100843.84
2018-04-02T06:05:25.132Z,100837.89
2018-04-02T06:07:54.524Z,100844.94
2018-04-02T06:10:22.783Z,100847.34
2018-04-02T06:12:51.301Z,100848.07
2018-04-02T06:15:20.459Z,100847.03
2018-04-02T06:17:48.797Z,100848.35
2018-04-02T06:20:17.119Z,100846.11
2018-04-02T06:22:46.591Z,100842.14
2018-04-02T06:25:14.897Z,100842.54
2018-04-02T06:27:43.160Z,100838.33
2018-04-02T06:30:11.736Z,100844.97
2018-04-02T06:32:40.070Z,100837.09
2018-04-02T06:35:09.516Z,100837.77
2018-04-02T06:37:37.987Z,100832.22
2018-04-02T06:40:06.602Z,100830.38
2018-04-02T06:42:35.291Z,100827.63
2018-04-02T06:45:04.028Z,100831.50
2018-04-02T06:47:32.321Z,100825.83
2018-04-02T06:50:00.825Z,100824.64
2018-04-02T06:52:29.148Z,100819.11
2018-04-02T06:54:58.567Z,100824.69
2018-04-02T06:57:26.859Z,100824.28
2018-04-02T06:59:55.427Z,100813.41
2018-04-02T07:02:23.918Z,100814.61
2018-04-02T07:04:58.885Z,100811.18
2018-04-02T07:07:27.342Z,100809.20
2018-04-02T07:09:55.944Z,100803.49
2018-04-02T07:12:24.513Z,100801.22
2018-04-02T07:14:53.040Z,100795.91
2018-04-02T07:17:21.455Z,100789.27
2018-04-02T07:19:49.821Z,100791.64
2018-04-02T07:22:19.140Z,100798.41
2018-04-02T07:24:47.619Z,100792.17
2018-04-02T07:27:15.927Z,100781.14
2018-04-02T07:29:44.700Z,100782.02
2018-04-02T07:32:13.348Z,100776.03
2018-04-02T07:34:41.748Z,100788.11
2018-04-02T07:37:11.192Z,100790.45
2018-04-02T07:39:39.508Z,100786.98
2018-04-02T07:42:08.037Z,100781.27
2018-04-02T07:44:36.507Z,100778.58
2018-04-02T07:47:04.875Z,100770.04
2018-04-02T07:49:33.476Z,100771.04
2018-04-02T07:52:02.107Z,100775.40
2018-04-02T07:54:30.419Z,100763.78
2018-04-02T07:56:58.751Z,100766.69
2018-04-02T07:59:27.125Z,100758.80
2018-04-02T08:01:55.464Z,100759.41
2018-04-02T08:04:23.933Z,100758.05
2018-04-02T08:06:52.272Z,100754.70
2018-04-02T08:09:20.855Z,100751.47
2018-04-02T08:11:49.347Z,100749.21
2018-04-02T08:14:18.612Z,100738.97
2018-04-02T08:16:46.916Z,100743.65
2018-04-02T08:19:15.540Z,100735.81
2018-04-02T08:21:44.649Z,100745.72
2018-04-02T08:24:13.085Z,100740.30
2018-04-02T08:26:41.404Z,100737.11
2018-04-02T08:29:10.013Z,100731.16
2018-04-02T08:31:38.300Z,100737.00
2018-04-02T08:34:06.617Z,100733.89
2018-04-02T08:36:35.736Z,100730.98
2018-04-02T08:39:08.349Z,100729.43
2018-04-02T08:41:36.632Z,100727.63
2018-04-02T08:44:05.297Z,100724.99
2018-04-02T08:46:33.816Z,100719.52
2018-04-02T08:49:02.244Z,100723.61
2018-04-02T08:51:30.762Z,100725.36
2018-04-02T08:53:59.541Z,100721.73
2018-04-02T08:56:27.935Z,100724.16
2018-04-02T08:58:56.511Z,100711.45
2018-04-02T09:01:25.112Z,100706.25
2018-04-02T09:03:53.693Z,100707.52
2018-04-02T09:06:22.270Z,100711.00
2018-04-02T09:08:51.120Z,100705.30
2018-04-02T09:11:19.506Z,100706.79
2018-04-02T09:13:48.022Z,100704.39
2018-04-02T09:16:16.301Z,100696.00
2018-04-02T09:18:44.713Z,100688.86
2018-04-02T09:21:13.865Z,100687.95
2018-04-02T09:23:42.208Z,100691.13
2018-04-02T09:26:10.529Z,100682.38
2018-04-02T09:28:38.927Z,100677.30
2018-04-02T09:31:07.634Z,100676.45
2018-04-02T09:33:36.805Z,100674.31
2018-04-02T09:36:05.137Z,100671.16
2018-04-02T09:38:33.585Z,100667.98
2018-04-02T09:41:02.796Z,100662.77
2018-04-02T09:43:31.980Z,100658.56
2018-04-02T09:46:01.276Z,100658.43
2018-04-02T09:48:30.516Z,100653.43
2018-04-02T09:50:59.288Z,100648.02
2018-04-02T09:53:28.468Z,100641.85
2018-04-02T09:55:57.599Z,100632.28
2018-04-02T09:58:26.431Z,100624.11
2018-04-02T10:00:59.485Z,100624.78
2018-04-02T10:03:32.762Z,100619.26
2018-04-02T10:06:01.136Z,100610.70
2018-04-02T10:08:29.737Z,100605.44
2018-04-02T10:10:58.141Z,100596.93
2018-04-02T10:13:26.952Z,100599.97
2018-04-02T10:15:55.496Z,100593.55
2018-04-02T10:18:24.335Z,100596.02
2018-04-02T10:20:52.731Z,100580.50
2018-04-02T10:23:21.967Z,100576.80
2018-04-02T10:25:50.284Z,100570.27
2018-04-02T10:28:18.797Z,100562.78
2018-04-02T10:30:48.021Z,100558.53
2018-04-02T10:33:17.284Z,100560.27
2018-04-02T10:35:46.932Z,100557.25
2018-04-02T10:38:15.813Z,100545.00
2018-04-02T10:40:44.164Z,100549.94
2018-04-02T10:43:13.289Z,100535.44
2018-04-02T10:45:41.556Z,100545.66
2018-04-02T10:48:10.233Z,100542.36
2018-04-02T10:50:38.635Z,100537.27
2018-04-02T10:53:07.236Z,100535.44
2018-04-02T10:55:35.795Z,100530.69
2018-04-02T10:58:04.133Z,100528.81
2018-04-02T11:00:32.607Z,100523.51
2018-04-02T11:03:01.004Z,100520.94
2018-04-02T11:05:30.356Z,100514.84
2018-04-02T11:07:58.672Z,100509.73
2018-04-02T11:10:27.796Z,100508.95
2018-04-02T11:12:57.121Z,100500.11
2018-04-02T11:15:25.569Z,100491.83
2018-04-02T11:17:54.844Z,100482.39
2018-04-02T11:20:23.208Z,100472.77
2018-04-02T11:22:51.996Z,100474.52
2018-04-02T11:25:20.414Z,100459.53
2018-04-02T11:27:49.558Z,100450.05
2018-04-02T11:30:17.998Z,100449.20
2018-04-02T11:32:47.296Z,100455.73
2018-04-02T11:35:17.045Z,100451.95
2018-04-02T11:37:45.476Z,100449.82
2018-04-02T11:40:16.224Z,100441.16
2018-04-02T11:42:51.382Z,100443.61
2018-04-02T11:45:26.828Z,100439.03
2018-04-02T11:47:59.050Z,100438.31
2018-04-02T11:50:29.353Z,100435.01
2018-04-02T11:52:59.087Z,100429.95
2018-04-02T11:55:28.571Z,100426.19
2018-04-02T11:58:00.797Z,100421.28
2018-04-02T12:00:29.944Z,100425.12
2018-04-02T12:03:01.219Z,100417.31
2018-04-02T12:05:30.972Z,100422.66
2018-04-02T12:08:04.003Z,100415.83
2018-04-02T12:10:33.914Z,100397.02
2018-04-02T12:13:04.388Z,100393.61
2018-04-02T12:15:36.403Z,100394.55
2018-04-02T12:18:04.942Z,100390.27
2018-04-02T12:20:33.431Z,100383.09
2018-04-02T12:23:02.367Z,100362.46
2018-04-02T12:25:32.393Z,100373.20
2018-04-02T12:28:00.810Z,100360.82
2018-04-02T12:30:29.392Z,100362.16
2018-04-02T12:32:57.868Z,100359.74
2018-04-02T12:35:27.354Z,100356.23
2018-04-02T12:37:56.735Z,100364.05
2018-04-02T12:40:25.292Z,100357.87
2018-04-02T12:42:53.875Z,100352.00
2018-04-02T12:45:23.268Z,100346.23
2018-04-02T12:47:52.337Z,100343.54
2018-04-02T12:50:21.753Z,100339.63
2018-04-02T12:52:50.250Z,100336.20
2018-04-02T12:55:18.533Z,100348.06
2018-04-02T12:57:47.187Z,100336.62
2018-04-02T13:00:16.469Z,100328.97
2018-04-02T13:02:45.221Z,100327.61
2018-04-02T13:05:13.665Z,100327.99
2018-04-02T13:07:42.097Z,100325.61
2018-04-02T13:10:10.749Z,100310.52
2018-04-02T13:12:39.054Z,100317.58
2018-04-02T13:15:08.292Z,100308.47
2018-04-02T13:17:37.333Z,100304.08
2018-04-02T13:20:07.102Z,100291.43
2018-04-02T13:22:39.583Z,100299.07
2018-04-02T13:25:09.571Z,100294.39
2018-04-02T13:27:39.271Z,100288.69
2018-04-02T13:30:11.056Z,100278.97
2018-04-02T13:32:41.412Z,100272.14
2018-04-02T13:35:11.165Z,100272.39
2018-04-02T13:37:41.684Z,100264.10
2018-04-02T13:40:10.596Z,100266.45
2018-04-02T13:42:40.768Z,100249.27
2018-04-02T13:45:11.001Z,100248.91
2018-04-02T13:47:39.980Z,100252.73
2018-04-02T13:50:11.205Z,100238.05
2018-04-02T13:52:42.329Z,100240.02
2018-04-02T13:55:12.236Z,100231.33
2018-04-02T13:57:41.260Z,100232.31
2018-04-02T14:00:11.303Z,100223.36
2018-04-02T14:02:40.126Z,100221.81
2018-04-02T14:05:08.737Z,100211.13
2018-04-02T14:07:38.896Z,100207.20
2018-04-02T14:10:08.019Z,100198.22
2018-04-02T14:12:37.736Z,100200.14
2018-04-02T14:15:10.659Z,100187.97
2018-04-02T14:17:40.121Z,100193.35
2018-04-02T14:20:10.344Z,100193.17
2018-04-02T14:22:40.276Z,100184.75
2018-04-02T14:25:09.348Z,100185.90
2018-04-02T14:27:38.230Z,100181.78
2018-04-02T14:30:06.663Z,100168.42
2018-04-02T14:32:35.045Z,100165.69
2018-04-02T14:35:04.273Z,100154.97
2018-04-02T14:37:32.961Z,100150.44
2018-04-02T14:40:01.545Z,100146.47
2018-04-02T14:42:30.171Z,100136.46
2018-04-02T14:44:58.631Z,100137.94
2018-04-02T14:47:26.984Z,100133.13
2018-04-02T14:49:55.992Z,100136.25
2018-04-02T14:52:24.505Z,100130.24
2018-04-02T14:54:53.375Z,100125.33
2018-04-02T14:57:21.635Z,100123.84
2018-04-02T14:59:50.332Z,100117.98
2018-04-02T15:02:18.706Z,100115.78
2018-04-02T15:04:47.713Z,100111.77
2018-04-02T15:07:16.088Z,100106.02
2018-04-02T15:09:44.456Z,100098.16
2018-04-02T15:12:13.103Z,100091.27
2018-04-02T15:14:42.055Z,100079.66
2018-04-02T15:17:11.503Z,100077.56
2018-04-02T15:19:40.802Z,100067.48
2018-04-02T15:22:09.974Z,100068.28
2018-04-02T15:24:39.124Z,100050.94
2018-04-02T15:27:07.580Z,100049.27
2018-04-02T15:29:37.106Z,100045.55
2018-04-02T15:32:05.547Z,100035.64
2018-04-02T15:34:33.904Z,100036.52
2018-04-02T15:37:02.461Z,100027.05
2018-04-02T15:39:30.819Z,100027.98
2018-04-02T15:41:59.773Z,100013.89
2018-04-02T15:44:28.124Z,100001.67
2018-04-02T15:46:56.913Z,100004.96
2018-04-02T15:49:25.587Z,99996.88
2018-04-02T15:51:53.933Z,99999.56
2018-04-02T15:54:23.192Z,99995.45
2018-04-02T15:56:51.874Z,99983.97
2018-04-02T15:59:20.527Z,99985.25
2018-04-02T16:01:49.021Z,99980.52
2018-04-02T16:04:17.450Z,99973.98
2018-04-02T16:06:45.778Z,99976.43
2018-04-02T16:09:14.124Z,99973.07
2018-04-02T16:11:43.397Z,99963.62
2018-04-02T16:14:12.094Z,99964.70
2018-04-02T16:16:40.436Z,99963.66
2018-04-02T16:19:08.911Z,99967.94
2018-04-02T16:21:37.615Z,99968.48
2018-04-02T16:24:06.147Z,99959.59
2018-04-02T16:26:35.376Z,99945.33
2018-04-02T16:29:04.695Z,99943.91
2018-04-02T16:31:33.353Z,99936.95
2018-04-02T16:34:01.872Z,99938.73
2018-04-02T16:36:30.327Z,99927.02
2018-04-02T16:38:58.937Z,99934.37
2018-04-02T16:41:27.320Z,99920.20
2018-04-02T16:43:55.904Z,99930.53
2018-04-02T16:46:24.430Z,99912.91
2018-04-02T16:48:53.824Z,99914.89
2018-04-02T16:51:23.276Z,99911.53
2018-04-02T16:53:52.009Z,99910.25
2018-04-02T16:56:20.438Z,99912.05
2018-04-02T16:58:49.117Z,99909.31
2018-04-02T17:01:17.619Z,99904.48
2018-04-02T17:03:46.270Z,99899.11
2018-04-02T17:06:14.843Z,99896.49
2018-04-02T17:08:44.234Z,99902.37
2018-04-02T17:11:13.376Z,99900.92
2018-04-02T17:13:41.753Z,99896.50
2018-04-02T17:16:10.049Z,99897.80
2018-04-02T17:18:38.360Z,99890.69
2018-04-02T17:21:07.054Z,99885.58
2018-04-02T17:23:36.442Z,99888.06
2018-04-02T17:26:05.070Z,99892.52
2018-04-02T17:28:33.649Z,99895.59
2018-04-02T17:31:01.864Z,99894.98
2018-04-02T17:33:31.003Z,99899.92
2018-04-02T17:35:59.338Z,99894.32
2018-04-02T17:38:27.787Z,99892.02
2018-04-02T17:40:56.297Z,99902.20
2018-04-02T17:43:24.959Z,99897.05
2018-04-02T17:45:53.370Z,99891.41
2018-04-02T17:48:21.634Z,99894.06
2018-04-02T17:50:50.031Z,99901.70
2018-04-02T17:53:18.321Z,99898.81
2018-04-02T17:55:47.439Z,99895.68
2018-04-02T17:58:16.447Z,99892.86
2018-04-02T18:00:44.906Z,99893.59
2018-04-02T18:03:13.950Z,99888.83
2018-04-02T18:05:42.500Z,99885.95
2018-04-02T18:08:10.985Z,99881.61
2018-04-02T18:10:39.631Z,99899.48
2018-04-02T18:13:08.867Z,99892.21
2018-04-02T18:15:37.306Z,99898.64
2018-04-02T18:18:05.671Z,99907.47
2018-04-02T18:20:33.955Z,99905.38
2018-04-02T18:23:02.308Z,99909.22
2018-04-02T18:25:31.216Z,99916.66
2018-04-02T18:27:59.607Z,99917.72
2018-04-02T18:30:27.883Z,99913.45
2018-04-02T18:32:56.238Z,99915.22
2018-04-02T18:35:24.473Z,99920.03
2018-04-02T18:37:53.777Z,99922.09
2018-04-02T18:40:22.768Z,99919.41
2018-04-02T18:42:51.842Z,99920.31
2018-04-02T18:45:20.304Z,99912.14
2018-04-02T18:47:48.630Z,99907.37
2018-04-02T18:50:17.879Z,99905.63
2018-04-02T18:52:46.306Z,99906.10
2018-04-02T18:55:15.674Z,99908.70
2018-04-02T18:57:43.997Z,99914.23
2018-04-02T19:00:12.219Z,99917.78
2018-04-02T19:02:40.565Z,99918.34
2018-04-02T19:05:08.816Z,99917.72
2018-04-02T19:07:37.930Z,99915.67
2018-04-02T19:10:06.432Z,99914.34
2018-04-02T19:12:34.693Z,99923.22
2018-04-02T19:15:03.328Z,99926.48
2018-04-02T19:17:31.761Z,99920.14
2018-04-02T19:20:00.382Z,99912.16
2018-04-02T19:22:28.720Z,99920.30
2018-04-02T19:24:56.974Z,99910.41
2018-04-02T19:27:25.997Z,99918.59
2018-04-02T19:29:54.322Z,99916.22
2018-04-02T19:32:23.356Z,99915.84
2018-04-02T19:34:51.976Z,99923.30
2018-04-02T19:37:20.203Z,99931.25
2018-04-02T19:39:49.310Z,99936.19
2018-04-02T19:42:17.528Z,99930.95
2018-04-02T19:44:45.876Z,99923.94
2018-04-02T19:47:14.234Z,99934.47
2018-04-02T19:49:43.320Z,99929.36
2018-04-02T19:52:12.686Z,99923.46
2018-04-02T19:54:40.945Z,99917.44
2018-04-02T19:57:09.186Z,99912.16
2018-04-02T19:59:37.418Z,99911.44
2018-04-02T20:02:05.681Z,99896.61
2018-04-02T20:04:33.943Z,99888.38
2018-04-02T20:07:02.252Z,99888.66
2018-04-02T20:09:30.546Z,99883.34
2018-04-02T20:11:58.819Z,99879.18
2018-04-02T20:14:27.115Z,99883.66
2018-04-02T20:16:56.387Z,99873.21
2018-04-02T20:19:24.672Z,99875.41
2018-04-02T20:21:53.113Z,99867.48
2018-04-02T20:24:21.537Z,99866.77
2018-04-02T20:26:50.120Z,99867.32
2018-04-02T20:29:19.109Z,99863.00
2018-04-02T20:31:47.454Z,99861.75
2018-04-02T20:34:15.966Z,99859.01
2018-04-02T20:36:44.281Z,99856.52
2018-04-02T20:39:12.513Z,99854.38
2018-04-02T20:41:40.741Z,99852.09
2018-04-02T20:44:09.598Z,99844.02
2018-04-02T20:46:38.712Z,99846.83
2018-04-02T20:49:14.497Z,99845.27
2018-04-02T20:51:44.837Z,99841.52
2018-04-02T20:54:13.307Z,99838.61
2018-04-02T20:56:41.611Z,99839.85
2018-04-02T20:59:09.909Z,99837.98
2018-04-02T21:01:38.925Z,99834.75
2018-04-02T21:04:08.062Z,99833.89
2018-04-02T21:06:36.317Z,99834.30
2018-04-02T21:09:06.105Z,99837.91
2018-04-02T21:11:35.170Z,99821.42
2018-04-02T21:14:03.468Z,99829.41
2018-04-02T21:16:32.511Z,99829.58
2018-04-02T21:19:00.769Z,99836.17
2018-04-02T21:21:29.022Z,99826.52
2018-04-02T21:23:58.064Z,99840.27
2018-04-02T21:26:26.308Z,99836.34
2018-04-02T21:28:54.526Z,99833.89
2018-04-02T21:31:22.875Z,99836.87
2018-04-02T21:33:52.031Z,99834.29
2018-04-02T21:36:21.087Z,99830.12
2018-04-02T21:38:49.506Z,99826.75
2018-04-02T21:41:18.792Z,99829.19
2018-04-02T21:43:47.097Z,99828.00
2018-04-02T21:46:16.327Z,99823.30
2018-04-02T21:48:44.902Z,99825.91
2018-04-02T21:51:13.305Z,99821.09
2018-04-02T21:53:41.705Z,99815.69
2018-04-02T21:56:10.188Z,99824.86
2018-04-02T21:58:38.529Z,99824.95
2018-04-02T22:01:06.826Z,99822.60
2018-04-02T22:03:38.960Z,99821.48
2018-04-02T22:06:17.898Z,99821.41
2018-04-02T22:08:49.040Z,99814.05
2018-04-02T22:11:20.306Z,99823.38
2018-04-02T22:13:49.785Z,99816.94
2018-04-02T22:16:20.786Z,99816.86
2018-04-02T22:18:49.719Z,99818.66
2018-04-02T22:21:23.373Z,99817.73
2018-04-02T22:23:52.950Z,99816.02
2018-04-02T22:26:23.269Z,99815.23
2018-04-02T22:28:56.248Z,99808.33
2018-04-02T22:31:27.686Z,99799.20
2018-04-02T22:33:58.705Z,99801.72
2018-04-02T22:36:29.190Z,99798.43
2018-04-02T22:38:58.507Z,99797.26
2018-04-02T22:41:26.849Z,99804.92
2018-04-02T22:43:55.216Z,99805.42
2018-04-02T22:46:23.530Z,99814.02
2018-04-02T22:48:52.218Z,99811.83
2018-04-02T22:51:21.135Z,99817.25
2018-04-02T22:53:49.456Z,99817.73
2018-04-02T22:56:17.713Z,99817.66
2018-04-02T22:58:45.999Z,99820.55
2018-04-02T23:01:14.615Z,99818.05
2018-04-02T23:03:42.876Z,99820.09
2018-04-02T23:06:11.274Z,99819.70
2018-04-02T23:08:39.676Z,99823.94
2018-04-02T23:11:08.035Z,99818.05
2018-04-02T23:13:36.429Z,99825.81
2018-04-02T23:16:04.764Z,99818.34
2018-04-02T23:18:33.264Z,99823.52
2018-04-02T23:21:01.554Z,99824.17
2018-04-02T23:23:29.784Z,99826.44
2018-04-02T23:25:58.020Z,99824.71
2018-04-02T23:28:26.510Z,99821.01
2018-04-02T23:30:54.818Z,99827.68
2018-04-02T23:33:23.113Z,99825.80
2018-04-02T23:35:51.398Z,99823.77
2018-04-02T23:38:19.877Z,99828.94
2018-04-02T23:40:48.106Z,99826.20
2018-04-02T23:43:16.351Z,99830.60
2018-04-02T23:45:44.704Z,99834.05
2018-04-02T23:48:13.082Z,99833.66
2018-04-02T23:50:41.779Z,99833.34
2018-04-02T23:53:10.282Z,99834.13
2018-04-02T23:55:38.850Z,99837.73
2018-04-02T23:58:07.259Z,99843.70
